Time;durP1;ratioP1;P1;durP2;ratioP2;P2;SDS_P1;SDS_P2;PMS_P1;PMS_P2;Temp;Humidity;BMP_temperature;BMP_pressure;BME280_temperature;BME280_humidity;BME280_pressure;Samples;Min_cycle;Max_cycle;Signal;HPM_P1;HPM_P2
2022/04/26 03:36:06;;;;;;;0.75;0.13;;;14.40;90.20;;;;;;5143862;27;20218;-73
2022/04/26 03:36:06;;;;;;;0.00;0.00;;;9.40;99.90;;;;;;5141189;27;20022;-75
2022/04/26 03:38:32;;;;;;;0.00;0.00;;;9.40;99.90;;;;;;5140762;27;20011;-74
2022/04/26 03:40:58;;;;;;;0.00;0.00;;;9.40;99.90;;;;;;5140903;27;20015;-74
2022/04/26 03:43:23;;;;;;;0.00;0.00;;;9.40;99.90;;;;;;5140116;27;20377;-74
2022/04/26 03:45:49;;;;;;;0.00;0.00;;;9.30;99.90;;;;;;5140541;27;20029;-75
2022/04/26 03:48:15;;;;;;;0.00;0.00;;;9.20;99.90;;;;;;5139836;27;20082;-76
2022/04/26 03:50:41;;;;;;;0.00;0.00;;;9.20;99.90;;;;;;5140567;27;20050;-75
2022/04/26 03:53:06;;;;;;;0.00;0.00;;;9.20;99.90;;;;;;5140325;27;20086;-77
2022/04/26 03:55:32;;;;;;;0.00;0.00;;;9.20;99.90;;;;;;5140217;27;20034;-77
2022/04/26 03:57:58;;;;;;;0.00;0.00;;;9.20;99.90;;;;;;5122241;27;20043;-75
2022/04/26 04:00:26;;;;;;;0.00;0.00;;;9.10;99.90;;;;;;5121442;27;20019;-75
2022/04/26 04:02:52;;;;;;;0.00;0.00;;;9.10;99.90;;;;;;5140510;27;20015;-77
2022/04/26 04:05:17;;;;;;;0.00;0.00;;;9.20;99.90;;;;;;5139666;27;20030;-75
2022/04/26 04:07:43;;;;;;;0.00;0.00;;;9.10;99.90;;;;;;5140119;27;20056;-75
2022/04/26 04:10:09;;;;;;;0.00;0.00;;;9.10;99.90;;;;;;5139805;27;20290;-74
2022/04/26 04:12:35;;;;;;;0.10;0.10;;;9.10;99.90;;;;;;5140185;27;20022;-74
2022/04/26 04:15:01;;;;;;;0.00;0.00;;;9.20;99.90;;;;;;5121861;27;20027;-74
2022/04/26 04:17:26;;;;;;;0.00;0.00;;;9.20;99.90;;;;;;5121165;27;20015;-75
2022/04/26 04:19:52;;;;;;;0.00;0.00;;;9.20;99.90;;;;;;5121812;27;20039;-75
2022/04/26 04:22:18;;;;;;;0.00;0.00;;;9.20;99.90;;;;;;5120969;27;20290;-73
2022/04/26 04:24:44;;;;;;;0.10;0.10;;;9.20;99.90;;;;;;5121635;27;20027;-73
2022/04/26 04:27:10;;;;;;;0.00;0.00;;;9.20;99.90;;;;;;5139391;27;20045;-73
2022/04/26 04:29:36;;;;;;;0.00;0.00;;;9.20;99.90;;;;;;5121483;28;20318;-76
2022/04/26 04:32:03;;;;;;;0.00;0.00;;;9.20;99.90;;;;;;5138824;27;20026;-77
2022/04/26 04:34:28;;;;;;;0.00;0.00;;;9.30;99.90;;;;;;5139164;27;20027;-74
2022/04/26 04:36:54;;;;;;;0.00;0.00;;;9.30;99.90;;;;;;5121471;28;20094;-76
2022/04/26 04:39:23;;;;;;;0.00;0.00;;;9.30;99.90;;;;;;5139227;28;20095;-74
2022/04/26 04:41:49;;;;;;;0.00;0.00;;;9.30;99.90;;;;;;5139971;28;20086;-76
2022/04/26 04:44:17;;;;;;;0.00;0.00;;;9.40;99.90;;;;;;5139192;28;20216;-74
2022/04/26 04:46:43;;;;;;;0.00;0.00;;;9.40;99.90;;;;;;5142230;27;20011;-76
2022/04/26 04:49:09;;;;;;;0.00;0.00;;;9.40;99.90;;;;;;5143613;27;20023;-74
2022/04/26 04:51:35;;;;;;;0.00;0.00;;;9.40;99.90;;;;;;5143683;27;20373;-74
2022/04/26 04:54:01;;;;;;;0.00;0.00;;;9.40;99.90;;;;;;5143932;27;20031;-76
2022/04/26 04:56:28;;;;;;;0.00;0.00;;;9.50;99.90;;;;;;5124847;27;20073;-74
2022/04/26 04:58:54;;;;;;;0.00;0.00;;;9.60;99.90;;;;;;5144026;27;20184;-74
2022/04/26 05:01:21;;;;;;;0.00;0.00;;;9.60;99.90;;;;;;5142289;27;20015;-75
2022/04/26 05:03:47;;;;;;;0.00;0.00;;;9.70;99.90;;;;;;5143818;27;20023;-75
2022/04/26 05:06:16;;;;;;;1.08;0.90;;;9.80;99.90;;;;;;5124674;27;20116;-78
2022/04/26 05:08:43;;;;;;;0.00;0.00;;;9.90;99.90;;;;;;5143673;27;20290;-75
2022/04/26 05:11:09;;;;;;;0.00;0.00;;;10.00;99.90;;;;;;5143092;27;20091;-75
2022/04/26 05:13:35;;;;;;;0.00;0.00;;;10.10;99.90;;;;;;5143513;27;20307;-75
2022/04/26 05:16:01;;;;;;;0.05;0.05;;;10.20;99.90;;;;;;5125078;27;20248;-76
2022/04/26 05:18:28;;;;;;;0.73;0.73;;;10.30;99.90;;;;;;5125058;27;20373;-75
2022/04/26 05:20:53;;;;;;;0.00;0.00;;;10.40;99.90;;;;;;5143847;27;20064;-74
2022/04/26 05:26:05;;;;;;;0.00;0.00;;;10.50;99.90;;;;;;5127250;27;20050;-76
2022/04/26 05:28:31;;;;;;;0.00;0.00;;;10.50;99.90;;;;;;5124949;27;20271;-75
2022/04/26 05:30:57;;;;;;;0.00;0.00;;;10.50;99.90;;;;;;5124802;27;20019;-73
2022/04/26 05:33:26;;;;;;;1.98;1.88;;;10.50;99.90;;;;;;5142353;27;20044;-75
2022/04/26 05:35:51;;;;;;;0.00;0.00;;;10.60;99.90;;;;;;5124787;27;20027;-81
2022/04/26 05:38:17;;;;;;;0.00;0.00;;;10.80;99.90;;;;;;5124139;27;20015;-77
2022/04/26 05:40:44;;;;;;;0.00;0.00;;;10.90;99.90;;;;;;5143182;27;20023;-74
2022/04/26 05:43:10;;;;;;;0.00;0.00;;;11.10;99.90;;;;;;5142559;27;20303;-73
2022/04/26 05:45:36;;;;;;;0.00;0.00;;;11.10;99.90;;;;;;5142826;27;20078;-75
2022/04/26 05:48:03;;;;;;;0.00;0.00;;;11.20;99.90;;;;;;5143063;27;20072;-75
2022/04/26 05:50:29;;;;;;;0.00;0.00;;;11.20;99.90;;;;;;5123775;27;20438;-80
2022/04/26 05:52:55;;;;;;;6.22;5.63;;;11.30;99.90;;;;;;5142819;27;20015;-75
2022/04/26 05:55:20;;;;;;;0.00;0.00;;;11.30;99.90;;;;;;5124673;27;20035;-86
2022/04/26 05:57:46;;;;;;;0.30;0.30;;;11.40;99.90;;;;;;5124191;27;20015;-73
2022/04/26 06:00:13;;;;;;;0.00;0.00;;;11.40;99.90;;;;;;5123788;27;20030;-76
2022/04/26 06:02:42;;;;;;;0.00;0.00;;;11.50;99.90;;;;;;5124348;27;20140;-75
2022/04/26 06:05:09;;;;;;;0.00;0.00;;;11.50;99.90;;;;;;5123372;27;20023;-75
2022/04/26 06:07:35;;;;;;;0.00;0.00;;;11.50;99.90;;;;;;5140414;27;20086;-75
2022/04/26 06:10:01;;;;;;;0.03;0.03;;;11.60;99.90;;;;;;5122703;27;20026;-75
2022/04/26 06:12:27;;;;;;;0.00;0.00;;;11.70;99.90;;;;;;5122357;27;20222;-74
2022/04/26 06:14:53;;;;;;;0.00;0.00;;;11.70;99.90;;;;;;5123942;27;20027;-77
2022/04/26 06:17:20;;;;;;;0.00;0.00;;;11.70;99.90;;;;;;5123762;27;20015;-73
2022/04/26 06:19:46;;;;;;;0.15;0.15;;;11.70;99.90;;;;;;5124185;27;20019;-75
2022/04/26 06:22:11;;;;;;;0.57;0.20;;;11.80;99.90;;;;;;5123368;27;20286;-75
2022/04/26 06:24:37;;;;;;;0.10;0.10;;;11.80;99.90;;;;;;5123944;27;20093;-75
2022/04/26 06:27:03;;;;;;;0.00;0.00;;;11.80;99.90;;;;;;5123988;27;20015;-76
2022/04/26 06:29:29;;;;;;;0.00;0.00;;;11.80;99.90;;;;;;5141570;27;20023;-75
2022/04/26 06:31:55;;;;;;;0.00;0.00;;;11.80;99.90;;;;;;5123532;27;20015;-75
2022/04/26 06:34:21;;;;;;;0.00;0.00;;;11.70;99.90;;;;;;5123076;27;20090;-74
2022/04/26 06:36:47;;;;;;;0.00;0.00;;;11.70;99.90;;;;;;5141995;27;20154;-74
2022/04/26 06:39:13;;;;;;;0.32;0.32;;;11.70;99.90;;;;;;5141173;27;20023;-75
2022/04/26 06:41:39;;;;;;;0.10;0.03;;;11.60;99.90;;;;;;5142012;27;20274;-74
2022/04/26 06:44:05;;;;;;;0.00;0.00;;;11.70;99.90;;;;;;5123577;27;20256;-74
2022/04/26 06:46:31;;;;;;;1.10;0.75;;;11.70;99.90;;;;;;5123543;27;20094;-76
2022/04/26 06:48:58;;;;;;;0.00;0.00;;;11.70;99.90;;;;;;5123442;27;20114;-74
2022/04/26 06:51:25;;;;;;;0.00;0.00;;;11.80;99.90;;;;;;5122154;27;20047;-75
2022/04/26 06:53:51;;;;;;;0.00;0.00;;;11.80;99.90;;;;;;5122838;27;20031;-72
2022/04/26 06:56:17;;;;;;;0.00;0.00;;;11.80;99.90;;;;;;5141170;27;20026;-73
2022/04/26 06:58:43;;;;;;;0.57;0.32;;;11.80;99.90;;;;;;5123076;27;20019;-75
2022/04/26 07:01:09;;;;;;;0.65;0.35;;;11.80;99.90;;;;;;5141037;27;20035;-75
2022/04/26 07:03:34;;;;;;;0.00;0.00;;;11.80;99.90;;;;;;5123079;27;20023;-74
2022/04/26 07:06:00;;;;;;;0.00;0.00;;;11.80;99.90;;;;;;5141605;27;20190;-74
2022/04/26 07:08:26;;;;;;;0.03;0.03;;;11.90;99.90;;;;;;5139735;27;20208;-75
2022/04/26 07:10:52;;;;;;;0.00;0.00;;;11.90;99.90;;;;;;5141336;27;20302;-75
2022/04/26 07:13:20;;;;;;;0.85;0.85;;;11.90;99.90;;;;;;5122529;27;20027;-76
2022/04/26 07:15:46;;;;;;;0.00;0.00;;;11.90;99.90;;;;;;5141087;27;20295;-74
2022/04/26 07:18:12;;;;;;;0.00;0.00;;;11.70;99.90;;;;;;5141022;27;20224;-73
2022/04/26 07:20:39;;;;;;;0.17;0.17;;;11.80;99.90;;;;;;5122736;27;20015;-73
2022/04/26 07:23:04;;;;;;;0.00;0.00;;;11.80;99.90;;;;;;5140800;27;20302;-73
2022/04/26 07:25:30;;;;;;;0.35;0.35;;;11.70;99.90;;;;;;5140432;27;20038;-73
2022/04/26 07:27:56;;;;;;;2.95;2.47;;;11.70;99.90;;;;;;5122459;27;20015;-73
2022/04/26 07:30:22;;;;;;;0.00;0.00;;;11.70;99.90;;;;;;5122571;27;20115;-73
2022/04/26 07:35:32;;;;;;;0.00;0.00;;;11.60;99.90;;;;;;5140290;27;20049;-75
2022/04/26 07:38:05;;;;;;;0.20;0.17;;;11.60;99.90;;;;;;5140660;27;20051;-74
2022/04/26 07:40:32;;;;;;;0.08;0.08;;;11.60;99.90;;;;;;5140819;27;20062;-74
2022/04/26 07:42:58;;;;;;;0.00;0.00;;;11.70;99.90;;;;;;5122505;27;20055;-74
2022/04/26 07:45:25;;;;;;;0.00;0.00;;;11.70;99.90;;;;;;5120943;27;20019;-74
2022/04/26 07:47:51;;;;;;;0.00;0.00;;;11.70;99.90;;;;;;5121921;27;20030;-73
2022/04/26 07:50:18;;;;;;;0.00;0.00;;;11.60;99.90;;;;;;5120795;27;20027;-73
2022/04/26 07:52:44;;;;;;;0.00;0.00;;;11.60;99.90;;;;;;5121478;27;20043;-73
2022/04/26 07:55:10;;;;;;;0.00;0.00;;;11.60;99.90;;;;;;5139726;27;20035;-76
2022/04/26 07:57:38;;;;;;;0.00;0.00;;;11.70;99.90;;;;;;5104849;27;20279;-74
2022/04/26 08:00:05;;;;;;;0.00;0.00;;;11.70;99.90;;;;;;5121815;27;20026;-74
2022/04/26 08:02:31;;;;;;;0.00;0.00;;;11.70;99.90;;;;;;5121420;27;20026;-75
2022/04/26 08:05:01;;;;;;;0.00;0.00;;;11.70;99.90;;;;;;5139933;27;20094;-70
2022/04/26 08:07:28;;;;;;;1.25;1.15;;;11.70;99.90;;;;;;5121083;27;20121;-72
2022/04/26 08:09:58;;;;;;;0.00;0.00;;;11.70;99.90;;;;;;5121550;27;20083;-74
2022/04/26 08:12:23;;;;;;;0.00;0.00;;;11.80;99.90;;;;;;5139174;27;20019;-73
2022/04/26 08:14:49;;;;;;;0.00;0.00;;;11.80;99.90;;;;;;5139943;27;20027;-70
2022/04/26 08:17:17;;;;;;;0.28;0.25;;;11.80;99.90;;;;;;5121029;27;20015;-72
2022/04/26 08:19:43;;;;;;;;;;;11.80;99.90;;;;;;5140462;27;20064;-73
2022/04/26 08:22:09;;;;;;;0.00;0.00;;;11.80;99.90;;;;;;5137458;27;19903;-74
2022/04/26 08:27:22;;;;;;;0.00;0.00;;;11.80;99.90;;;;;;5138908;27;20095;-72
2022/04/26 08:29:48;;;;;;;0.00;0.00;;;11.80;99.90;;;;;;5139525;27;20083;-71
2022/04/26 08:32:14;;;;;;;0.00;0.00;;;11.90;99.90;;;;;;5138967;27;20038;-72
2022/04/26 08:34:41;;;;;;;0.00;0.00;;;11.90;99.90;;;;;;5138730;27;20094;-72
2022/04/26 08:37:08;;;;;;;0.00;0.00;;;11.90;99.90;;;;;;5121128;28;20046;-72
2022/04/26 08:39:35;;;;;;;0.00;0.00;;;11.90;99.90;;;;;;5120870;27;20342;-72
2022/04/26 08:42:02;;;;;;;0.00;0.00;;;11.90;99.90;;;;;;5139563;27;20050;-72
2022/04/26 08:44:29;;;;;;;0.00;0.00;;;11.90;99.90;;;;;;5138859;28;20136;-71
2022/04/26 08:52:28;;;;;;;0.03;0.00;;;11.90;99.90;;;;;;5138009;28;20062;-72
2022/04/26 08:54:54;;;;;;;0.00;0.00;;;12.00;99.90;;;;;;5119715;28;20035;-72
2022/04/26 08:57:20;;;;;;;0.00;0.00;;;12.00;99.90;;;;;;5120128;28;20099;-73
2022/04/26 08:59:50;;;;;;;0.10;0.10;;;11.90;99.90;;;;;;5139519;28;20253;-73
2022/04/26 09:02:25;;;;;;;0.00;0.00;;;11.90;99.90;;;;;;5138767;28;20247;-72
2022/04/26 09:04:53;;;;;;;0.00;0.00;;;11.90;99.90;;;;;;5139341;28;20374;-71
2022/04/26 09:07:39;;;;;;;1.27;1.27;;;11.90;99.90;;;;;;5138797;28;20019;-73
2022/04/26 09:10:11;;;;;;;0.00;0.00;;;11.90;99.90;;;;;;5139170;28;20079;-73
2022/04/26 09:13:06;;;;;;;0.10;0.10;;;11.90;99.90;;;;;;5121036;28;20023;-73
2022/04/26 09:15:49;;;;;;;0.00;0.00;;;12.00;99.90;;;;;;5139082;28;20073;-72
2022/04/26 09:18:20;;;;;;;0.00;0.00;;;12.00;99.90;;;;;;5138708;28;20027;-74
2022/04/26 09:20:49;;;;;;;0.00;0.00;;;12.00;99.90;;;;;;5121021;28;20026;-72
2022/04/26 09:23:25;;;;;;;;;;;12.00;99.90;;;;;;5120876;28;20164;-73
2022/04/26 09:26:11;;;;;;;0.00;0.00;;;12.10;99.90;;;;;;5121377;28;20078;-72
2022/04/26 09:28:39;;;;;;;0.00;0.00;;;12.10;99.90;;;;;;5120750;28;20133;-75
2022/04/26 09:31:23;;;;;;;0.00;0.00;;;12.10;99.90;;;;;;5120864;27;20020;-71
2022/04/26 09:33:57;;;;;;;0.00;0.00;;;12.10;99.90;;;;;;5143306;27;20050;-71
2022/04/26 09:36:31;;;;;;;0.00;0.00;;;12.10;99.90;;;;;;5141175;27;20064;-74
2022/04/26 09:39:01;;;;;;;0.00;0.00;;;12.10;99.90;;;;;;5143034;27;20015;-73
2022/04/26 09:41:29;;;;;;;0.00;0.00;;;12.20;99.90;;;;;;5142725;27;20026;-71
2022/04/26 09:43:57;;;;;;;0.00;0.00;;;12.20;99.90;;;;;;5124714;27;20018;-72
2022/04/26 09:46:23;;;;;;;0.00;0.00;;;12.20;99.90;;;;;;5139111;27;20278;-73
2022/04/26 09:48:53;;;;;;;0.00;0.00;;;12.20;99.90;;;;;;5118278;27;20015;-72
2022/04/26 09:51:19;;;;;;;0.75;0.75;;;12.30;99.90;;;;;;5122574;27;20348;-72
2022/04/26 09:53:44;;;;;;;0.00;0.00;;;12.30;99.90;;;;;;5142695;27;20323;-72
2022/04/26 09:56:13;;;;;;;0.00;0.00;;;12.30;99.90;;;;;;5142860;27;20054;-74
2022/04/26 09:58:42;;;;;;;0.00;0.00;;;12.30;99.90;;;;;;5143002;27;20019;-73
2022/04/26 10:01:08;;;;;;;0.00;0.00;;;12.40;99.90;;;;;;5142523;27;20021;-73
2022/04/26 10:03:36;;;;;;;0.00;0.00;;;12.40;99.90;;;;;;5123824;27;20030;-73
2022/04/26 10:06:07;;;;;;;0.00;0.00;;;12.50;99.90;;;;;;5124222;27;20302;-73
2022/04/26 10:08:36;;;;;;;0.00;0.00;;;12.40;99.90;;;;;;5123618;27;20019;-72
2022/04/26 10:11:03;;;;;;;0.00;0.00;;;12.50;99.90;;;;;;5142238;27;20092;-71
2022/04/26 10:13:32;;;;;;;0.00;0.00;;;12.50;99.90;;;;;;5141850;27;20019;-73
2022/04/26 10:16:04;;;;;;;0.00;0.00;;;12.50;99.90;;;;;;5142057;27;20019;-74
2022/04/26 10:18:32;;;;;;;0.00;0.00;;;12.50;99.90;;;;;;5123170;27;20015;-74
2022/04/26 10:20:59;;;;;;;0.00;0.00;;;12.50;99.90;;;;;;5123319;27;20090;-72
2022/04/26 10:23:25;;;;;;;0.00;0.00;;;12.50;99.90;;;;;;5141504;27;20054;-73
2022/04/26 10:26:23;;;;;;;0.00;0.00;;;12.60;99.90;;;;;;5141878;27;20041;-75
2022/04/26 10:28:51;;;;;;;0.00;0.00;;;12.70;99.90;;;;;;5142235;27;20056;-71
2022/04/26 10:31:17;;;;;;;0.00;0.00;;;12.70;99.90;;;;;;5122947;27;20151;-73
2022/04/26 10:33:47;;;;;;;0.00;0.00;;;12.70;99.90;;;;;;5122774;27;20272;-73
2022/04/26 10:36:28;;;;;;;0.00;0.00;;;12.80;99.90;;;;;;5141737;27;20030;-73
2022/04/26 10:39:06;;;;;;;0.00;0.00;;;12.80;99.90;;;;;;5123320;27;20015;-72
2022/04/26 10:41:37;;;;;;;0.00;0.00;;;12.90;99.90;;;;;;5122772;27;20041;-72
2022/04/26 10:44:21;;;;;;;0.00;0.00;;;12.90;99.90;;;;;;5140273;27;20023;-72
2022/04/26 10:47:00;;;;;;;0.00;0.00;;;12.90;99.90;;;;;;5123193;27;20015;-72
2022/04/26 10:49:32;;;;;;;0.00;0.00;;;12.90;99.90;;;;;;5122372;27;20286;-72
2022/04/26 10:52:18;;;;;;;0.00;0.00;;;12.90;99.90;;;;;;5122905;27;20051;-71
2022/04/26 10:55:04;;;;;;;0.00;0.00;;;12.80;99.90;;;;;;5141188;27;20030;-71
2022/04/26 10:57:41;;;;;;;0.00;0.00;;;12.80;99.90;;;;;;5122720;27;20025;-71
2022/04/26 11:00:15;;;;;;;0.00;0.00;;;12.90;99.90;;;;;;5140964;27;20026;-72
2022/04/26 11:02:44;;;;;;;0.00;0.00;;;12.90;99.90;;;;;;5141741;27;20294;-73
2022/04/26 11:05:18;;;;;;;0.00;0.00;;;12.90;99.90;;;;;;5122720;27;20086;-74
2022/04/26 11:07:47;;;;;;;0.00;0.00;;;13.00;99.90;;;;;;5140788;27;20022;-73
2022/04/26 11:10:24;;;;;;;0.00;0.00;;;13.10;99.90;;;;;;5141217;27;20075;-74
2022/04/26 11:12:51;;;;;;;0.00;0.00;;;13.30;99.90;;;;;;5122771;27;20019;-72
2022/04/26 11:15:21;;;;;;;0.00;0.00;;;13.50;99.90;;;;;;5140448;27;20023;-73
2022/04/26 11:17:50;;;;;;;0.00;0.00;;;13.80;99.90;;;;;;5141075;27;20069;-72
2022/04/26 11:20:26;;;;;;;0.00;0.00;;;13.90;99.90;;;;;;5122218;27;20363;-73
2022/04/26 11:22:53;;;;;;;0.00;0.00;;;14.20;99.40;;;;;;5122800;27;20064;-73
2022/04/26 11:28:10;;;;;;;0.00;0.00;;;14.60;99.40;;;;;;5140575;27;20025;-72
2022/04/26 11:30:48;;;;;;;0.00;0.00;;;14.90;99.90;;;;;;5140597;27;20071;-72
2022/04/26 11:33:18;;;;;;;0.00;0.00;;;15.10;99.40;;;;;;5140561;27;20015;-73
2022/04/26 11:35:44;;;;;;;0.00;0.00;;;15.80;99.90;;;;;;5140833;27;20309;-74
2022/04/26 11:38:15;;;;;;;0.00;0.00;;;16.50;96.30;;;;;;5140656;27;20019;-73
2022/04/26 11:40:47;;;;;;;0.00;0.00;;;17.00;95.70;;;;;;5122397;27;20102;-73
2022/04/26 11:43:24;;;;;;;0.05;0.05;;;17.30;93.20;;;;;;5140459;27;20017;-74
2022/04/26 11:45:52;;;;;;;0.00;0.00;;;17.40;92.30;;;;;;5122353;27;20015;-74
2022/04/26 11:48:24;;;;;;;0.00;0.00;;;17.30;92.40;;;;;;5121564;27;20207;-73
2022/04/26 11:50:51;;;;;;;0.00;0.00;;;17.20;90.50;;;;;;5140217;27;20322;-73
2022/04/26 11:53:19;;;;;;;0.27;0.27;;;17.10;91.70;;;;;;5121457;27;20027;-73
2022/04/26 11:56:02;;;;;;;0.00;0.00;;;17.00;91.90;;;;;;5121697;27;20191;-72
2022/04/26 11:58:27;;;;;;;0.47;0.10;;;17.10;94.10;;;;;;5121292;27;20099;-72
2022/04/26 12:00:53;;;;;;;0.00;0.00;;;17.10;92.30;;;;;;5139993;27;20015;-74
2022/04/26 12:03:21;;;;;;;0.00;0.00;;;17.00;88.60;;;;;;5121330;27;20046;-72
2022/04/26 12:05:58;;;;;;;0.00;0.00;;;16.90;89.90;;;;;;5121887;27;20015;-72
2022/04/26 12:08:25;;;;;;;0.00;0.00;;;16.70;92.60;;;;;;5121369;27;20031;-72
2022/04/26 12:10:50;;;;;;;0.00;0.00;;;16.60;91.70;;;;;;5139740;27;20255;-73
2022/04/26 12:13:30;;;;;;;0.10;0.10;;;16.50;92.90;;;;;;5121201;27;20186;-72
2022/04/26 12:16:12;;;;;;;0.00;0.00;;;16.40;88.30;;;;;;5139970;27;20023;-71
2022/04/26 12:18:51;;;;;;;0.00;0.00;;;16.30;92.20;;;;;;5139410;27;20042;-72
2022/04/26 12:21:17;;;;;;;0.00;0.00;;;16.30;93.60;;;;;;5120733;27;20019;-71
2022/04/26 12:23:43;;;;;;;0.00;0.00;;;16.30;90.80;;;;;;5121491;27;20019;-71
2022/04/26 12:26:09;;;;;;;0.20;0.10;;;16.20;91.30;;;;;;5139854;27;20106;-72
2022/04/26 12:28:51;;;;;;;0.00;0.00;;;16.30;93.00;;;;;;5139340;27;20176;-71
2022/04/26 12:31:22;;;;;;;0.00;0.00;;;16.20;89.80;;;;;;5139022;27;20023;-72
2022/04/26 12:34:12;;;;;;;0.00;0.00;;;16.00;90.10;;;;;;5120962;27;20023;-71
2022/04/26 12:36:51;;;;;;;0.00;0.00;;;15.90;90.60;;;;;;5121625;27;20051;-72
2022/04/26 12:39:18;;;;;;;0.00;0.00;;;15.80;91.30;;;;;;5120850;28;20041;-73
2022/04/26 12:41:56;;;;;;;0.00;0.00;;;15.70;91.10;;;;;;5139318;27;20015;-71
2022/04/26 12:44:23;;;;;;;0.00;0.00;;;15.60;91.20;;;;;;5120870;28;20057;-72
2022/04/26 12:52:41;;;;;;;0.00;0.00;;;15.20;91.40;;;;;;5139100;28;20000;-72
2022/04/26 12:55:06;;;;;;;0.00;0.00;;;14.90;91.50;;;;;;5139258;28;20087;-72
2022/04/26 12:57:47;;;;;;;0.00;0.00;;;14.90;92.20;;;;;;5120632;28;20019;-72
2022/04/26 13:00:14;;;;;;;0.00;0.00;;;14.90;91.60;;;;;;5120432;28;20230;-75
2022/04/26 13:02:40;;;;;;;0.00;0.00;;;14.90;91.90;;;;;;5121303;28;20330;-71
2022/04/26 13:05:07;;;;;;;0.00;0.00;;;14.90;93.30;;;;;;5139286;28;20027;-72
2022/04/26 13:07:33;;;;;;;0.00;0.00;;;14.90;91.30;;;;;;5122618;27;20294;-72
2022/04/26 13:09:59;;;;;;;0.00;0.00;;;14.90;90.90;;;;;;5143409;27;20026;-73
2022/04/26 13:12:25;;;;;;;0.00;0.00;;;14.90;92.40;;;;;;5142850;27;20027;-72
2022/04/26 13:14:51;;;;;;;0.00;0.00;;;14.90;91.70;;;;;;5125119;27;20027;-71
2022/04/26 13:17:20;;;;;;;0.00;0.00;;;14.90;90.90;;;;;;5143030;27;20042;-71
2022/04/26 13:19:47;;;;;;;0.00;0.00;;;15.00;91.40;;;;;;5143706;27;20365;-71
2022/04/26 13:22:15;;;;;;;0.00;0.00;;;15.00;93.30;;;;;;5143304;27;20399;-74
2022/04/26 13:24:41;;;;;;;0.00;0.00;;;15.00;93.90;;;;;;5124796;27;20135;-72
2022/04/26 13:27:06;;;;;;;0.00;0.00;;;15.00;93.10;;;;;;5142944;27;20215;-71
2022/04/26 13:29:32;;;;;;;0.00;0.00;;;15.00;92.10;;;;;;5142695;27;20090;-75
2022/04/26 13:31:58;;;;;;;0.00;0.00;;;15.00;91.60;;;;;;5143343;27;20015;-72
2022/04/26 13:34:25;;;;;;;0.00;0.00;;;14.90;92.80;;;;;;5124056;27;20064;-72
2022/04/26 13:36:51;;;;;;;0.00;0.00;;;14.90;92.00;;;;;;5143428;27;20019;-75
2022/04/26 13:39:17;;;;;;;0.00;0.00;;;15.00;91.20;;;;;;5124493;27;20022;-72
2022/04/26 13:41:43;;;;;;;0.00;0.00;;;15.00;91.50;;;;;;5124895;27;20019;-73
2022/04/26 13:44:08;;;;;;;0.00;0.00;;;15.10;94.00;;;;;;5143066;27;20047;-73
2022/04/26 13:46:53;;;;;;;0.00;0.00;;;15.00;91.50;;;;;;5123723;27;20015;-73
2022/04/26 13:49:19;;;;;;;0.00;0.00;;;15.00;92.00;;;;;;5123812;27;20019;-74
2022/04/26 13:51:45;;;;;;;0.00;0.00;;;15.10;91.20;;;;;;5124170;27;20107;-74
2022/04/26 13:54:11;;;;;;;0.00;0.00;;;15.10;91.80;;;;;;5124391;27;20038;-76
2022/04/26 13:56:37;;;;;;;0.00;0.00;;;15.10;92.20;;;;;;5124073;27;20015;-73
2022/04/26 13:59:02;;;;;;;0.00;0.00;;;15.20;92.30;;;;;;5142565;27;20129;-76
2022/04/26 14:01:29;;;;;;;0.00;0.00;;;15.30;94.90;;;;;;5142225;27;20061;-75
2022/04/26 14:03:55;;;;;;;0.00;0.00;;;15.50;94.50;;;;;;5124622;27;20034;-75
2022/04/26 14:06:21;;;;;;;0.00;0.00;;;15.60;92.60;;;;;;5142096;27;20100;-75
2022/04/26 14:08:50;;;;;;;0.05;0.03;;;15.70;92.50;;;;;;5124307;27;20026;-74
2022/04/26 14:11:21;;;;;;;0.00;0.00;;;15.70;92.10;;;;;;5141558;27;20270;-73
2022/04/26 14:21:59;;;;;;;0.28;0.10;;;15.70;92.60;;;;;;5142105;27;20022;-73
2022/04/26 14:27:10;;;;;;;0.00;0.00;;;15.70;91.70;;;;;;5142388;27;20091;-73
2022/04/26 14:29:35;;;;;;;0.00;0.00;;;15.80;92.80;;;;;;5141276;27;20022;-72
2022/04/26 14:32:02;;;;;;;0.00;0.00;;;15.70;92.60;;;;;;5141945;27;20015;-72
2022/04/26 14:34:29;;;;;;;0.00;0.00;;;15.70;91.80;;;;;;5141506;27;20031;-73
2022/04/26 14:36:55;;;;;;;0.00;0.00;;;15.70;91.70;;;;;;5141541;27;20023;-72
2022/04/26 14:39:21;;;;;;;0.17;0.10;;;15.70;91.50;;;;;;5122813;27;20094;-73
2022/04/26 14:41:46;;;;;;;0.00;0.00;;;15.70;91.60;;;;;;5141804;27;20290;-71
2022/04/26 14:44:12;;;;;;;0.10;0.10;;;15.70;91.70;;;;;;5141608;27;20208;-75
2022/04/26 14:46:38;;;;;;;0.00;0.00;;;15.70;92.80;;;;;;5123076;27;20015;-73
2022/04/26 14:49:06;;;;;;;0.00;0.00;;;15.70;91.30;;;;;;5123029;27;20019;-75
2022/04/26 14:51:32;;;;;;;0.00;0.00;;;15.70;92.60;;;;;;5122375;27;20122;-75
2022/04/26 14:53:58;;;;;;;1.05;0.50;;;15.70;92.10;;;;;;5141245;27;20068;-75
2022/04/26 14:56:24;;;;;;;0.00;0.00;;;15.80;92.40;;;;;;5122439;27;20034;-73
2022/04/26 14:58:50;;;;;;;0.00;0.00;;;15.80;94.20;;;;;;5141563;27;20023;-73
2022/04/26 15:01:17;;;;;;;0.00;0.00;;;15.90;93.30;;;;;;5141357;27;20019;-75
2022/04/26 15:03:44;;;;;;;0.30;0.20;;;15.90;94.00;;;;;;5122732;27;20116;-73
2022/04/26 15:06:10;;;;;;;0.00;0.00;;;16.00;91.30;;;;;;5121151;27;20015;-71
2022/04/26 15:11:20;;;;;;;2.63;0.32;;;15.80;91.90;;;;;;5140579;27;20272;-72
2022/04/26 15:16:40;;;;;;;0.00;0.00;;;15.70;92.40;;;;;;5140551;27;20026;-72
2022/04/26 15:19:11;;;;;;;0.10;0.10;;;15.70;93.60;;;;;;5141234;27;20015;-73
2022/04/26 15:21:37;;;;;;;0.00;0.00;;;16.00;93.50;;;;;;5140318;27;20202;-73
2022/04/26 15:24:04;;;;;;;0.00;0.00;;;15.60;92.80;;;;;;5122545;27;20042;-76
2022/04/26 15:26:30;;;;;;;0.00;0.00;;;15.60;93.70;;;;;;5121708;27;20060;-73
2022/04/26 15:28:57;;;;;;;0.00;0.00;;;15.60;93.50;;;;;;5140418;27;20026;-73
2022/04/26 15:31:24;;;;;;;0.00;0.00;;;15.60;93.70;;;;;;5140122;27;20026;-73
2022/04/26 15:33:51;;;;;;;0.00;0.00;;;15.50;93.80;;;;;;5141333;27;20042;-73
2022/04/26 15:36:18;;;;;;;0.20;0.20;;;15.40;94.40;;;;;;5140377;27;20078;-76
2022/04/26 15:38:45;;;;;;;0.00;0.00;;;15.40;93.60;;;;;;5122727;27;20281;-74
2022/04/26 15:41:12;;;;;;;0.00;0.00;;;15.40;93.50;;;;;;5122474;27;20015;-81
2022/04/26 15:43:39;;;;;;;0.00;0.00;;;15.30;94.50;;;;;;5122109;27;20022;-73
2022/04/26 15:46:06;;;;;;;0.00;0.00;;;15.30;93.70;;;;;;5141151;27;20019;-73
2022/04/26 15:48:37;;;;;;;0.00;0.00;;;15.20;94.10;;;;;;5121852;27;20095;-75
2022/04/26 15:51:03;;;;;;;0.00;0.00;;;15.10;94.50;;;;;;5140770;27;20100;-75
2022/04/26 15:53:29;;;;;;;0.03;0.00;;;15.10;95.50;;;;;;5121802;27;20290;-73
2022/04/26 15:55:55;;;;;;;0.00;0.00;;;15.00;94.10;;;;;;5122194;27;20026;-74
2022/04/26 15:58:20;;;;;;;0.00;0.00;;;15.00;95.00;;;;;;5121992;27;20243;-74
2022/04/26 16:00:46;;;;;;;0.00;0.00;;;15.00;94.60;;;;;;5140312;27;20030;-73
2022/04/26 16:03:12;;;;;;;0.00;0.00;;;14.90;96.00;;;;;;5121895;27;20026;-75
2022/04/26 16:05:40;;;;;;;0.00;0.00;;;15.00;95.50;;;;;;5121539;27;20090;-74
2022/04/26 16:08:07;;;;;;;0.00;0.00;;;15.00;96.50;;;;;;5140402;27;20086;-74
2022/04/26 16:21:30;;;;;;;0.00;0.00;;;15.10;95.90;;;;;;5139518;27;20091;-70
2022/04/26 16:23:57;;;;;;;0.00;0.00;;;15.20;95.50;;;;;;5140030;27;20026;-72
2022/04/26 16:26:23;;;;;;;0.00;0.00;;;15.10;95.30;;;;;;5121178;27;20343;-75
2022/04/26 16:28:53;;;;;;;0.22;0.22;;;15.20;95.10;;;;;;5141194;27;20027;-79
2022/04/26 16:31:24;;;;;;;0.03;0.00;;;15.20;94.30;;;;;;5140832;27;20259;-77
2022/04/26 16:33:51;;;;;;;0.95;0.17;;;15.10;94.90;;;;;;5140575;27;20034;-81
2022/04/26 16:36:18;;;;;;;0.00;0.00;;;15.00;94.70;;;;;;5140044;27;20023;-82
2022/04/26 16:38:44;;;;;;;0.00;0.00;;;14.80;94.30;;;;;;5122338;27;20103;-82
2022/04/26 16:41:09;;;;;;;0.00;0.00;;;14.80;95.90;;;;;;5142462;27;20023;-85
2022/04/26 16:43:36;;;;;;;0.00;0.00;;;14.70;95.20;;;;;;5140080;27;20282;-82
2022/04/26 16:46:02;;;;;;;0.00;0.00;;;14.60;97.40;;;;;;5121922;28;20058;-80
2022/04/26 16:48:28;;;;;;;0.10;0.10;;;14.60;97.30;;;;;;5121425;28;20024;-83
2022/04/26 16:50:54;;;;;;;0.00;0.00;;;14.50;96.20;;;;;;5139816;28;20047;-85
2022/04/26 16:53:20;;;;;;;0.00;0.00;;;14.50;97.30;;;;;;5139256;28;20011;-73
2022/04/26 16:55:46;;;;;;;0.00;0.00;;;14.50;98.10;;;;;;5120872;28;20054;-71
2022/04/26 16:58:13;;;;;;;0.00;0.00;;;14.50;99.00;;;;;;5120898;28;20452;-75
2022/04/26 17:00:41;;;;;;;0.00;0.00;;;14.50;98.30;;;;;;5139113;28;20031;-72
2022/04/26 17:03:07;;;;;;;0.00;0.00;;;14.50;97.00;;;;;;5139732;28;20011;-70
2022/04/26 17:05:33;;;;;;;0.00;0.00;;;14.60;98.80;;;;;;5120833;28;20375;-75
2022/04/26 17:07:58;;;;;;;0.00;0.00;;;14.50;99.90;;;;;;5121420;28;20019;-70
2022/04/26 17:10:25;;;;;;;0.00;0.00;;;14.50;99.80;;;;;;5139012;28;20236;-71
2022/04/26 17:12:52;;;;;;;0.00;0.00;;;14.50;99.30;;;;;;5139567;28;20306;-75
2022/04/26 17:15:21;;;;;;;0.00;0.00;;;14.40;99.40;;;;;;5120877;28;20049;-84